sensor_id;sensor_type;location;lat;lon;timestamp;pressure;altitude;pressure_sealevel;temperature;humidity
37856;BME280;23694;43.274;26.924;2023-06-26T00:01:52;98408.78;;;22.69;89.41
37856;BME280;23694;43.274;26.924;2023-06-26T00:04:18;98409.78;;;22.68;89.47
37856;BME280;23694;43.274;26.924;2023-06-26T00:06:44;98405.72;;;22.72;89.37
37856;BME280;23694;43.274;26.924;2023-06-26T00:09:11;98419.56;;;22.55;90.36
37856;BME280;23694;43.274;26.924;2023-06-26T00:11:38;98399.47;;;22.59;90.25
37856;BME280;23694;43.274;26.924;2023-06-26T00:14:04;98407.22;;;22.54;90.63
37856;BME280;23694;43.274;26.924;2023-06-26T00:16:30;98406.06;;;22.63;90.19
37856;BME280;23694;43.274;26.924;2023-06-26T00:18:56;98406.09;;;22.69;89.72
37856;BME280;23694;43.274;26.924;2023-06-26T00:21:25;98406.34;;;22.74;89.27
37856;BME280;23694;43.274;26.924;2023-06-26T00:23:51;98402.66;;;22.75;88.87
37856;BME280;23694;43.274;26.924;2023-06-26T00:26:17;98402.56;;;22.62;89.71
37856;BME280;23694;43.274;26.924;2023-06-26T00:28:43;98400.28;;;22.59;89.67
37856;BME280;23694;43.274;26.924;2023-06-26T00:31:10;98399.03;;;22.55;89.30
37856;BME280;23694;43.274;26.924;2023-06-26T00:33:36;98402.56;;;22.34;90.68
37856;BME280;23694;43.274;26.924;2023-06-26T00:36:02;98404.53;;;22.04;92.40
37856;BME280;23694;43.274;26.924;2023-06-26T00:38:28;98395.31;;;22.07;92.84
37856;BME280;23694;43.274;26.924;2023-06-26T00:40:54;98395.97;;;22.09;92.10
37856;BME280;23694;43.274;26.924;2023-06-26T00:43:20;98392.75;;;21.99;92.51
37856;BME280;23694;43.274;26.924;2023-06-26T00:45:47;98388.34;;;22.06;92.35
37856;BME280;23694;43.274;26.924;2023-06-26T00:48:13;98388.16;;;22.07;91.59
37856;BME280;23694;43.274;26.924;2023-06-26T00:50:41;98392.13;;;21.97;92.53
37856;BME280;23694;43.274;26.924;2023-06-26T00:53:09;98394.22;;;22.01;92.17
37856;BME280;23694;43.274;26.924;2023-06-26T00:55:35;98391.38;;;22.03;91.80
37856;BME280;23694;43.274;26.924;2023-06-26T00:58:01;98397.44;;;22.11;91.36
37856;BME280;23694;43.274;26.924;2023-06-26T01:00:27;98399.34;;;22.18;90.92
37856;BME280;23694;43.274;26.924;2023-06-26T01:02:54;98390.50;;;22.17;90.43
37856;BME280;23694;43.274;26.924;2023-06-26T01:05:26;98404.44;;;22.12;90.96
37856;BME280;23694;43.274;26.924;2023-06-26T01:07:53;98399.38;;;22.03;91.42
37856;BME280;23694;43.274;26.924;2023-06-26T01:10:19;98393.97;;;21.96;92.12
37856;BME280;23694;43.274;26.924;2023-06-26T01:12:46;98391.53;;;22.01;92.06
37856;BME280;23694;43.274;26.924;2023-06-26T01:15:12;98392.94;;;21.97;91.91
37856;BME280;23694;43.274;26.924;2023-06-26T01:17:38;98393.31;;;21.73;93.95
37856;BME280;23694;43.274;26.924;2023-06-26T01:20:06;98395.78;;;21.74;93.89
37856;BME280;23694;43.274;26.924;2023-06-26T01:23:38;98390.28;;;21.76;93.95
37856;BME280;23694;43.274;26.924;2023-06-26T01:26:08;98390.00;;;21.71;94.60
37856;BME280;23694;43.274;26.924;2023-06-26T01:28:38;98386.38;;;21.42;96.98
37856;BME280;23694;43.274;26.924;2023-06-26T01:31:06;98378.94;;;21.52;96.53
37856;BME280;23694;43.274;26.924;2023-06-26T01:33:32;98368.75;;;21.56;96.09
37856;BME280;23694;43.274;26.924;2023-06-26T01:35:58;98373.88;;;21.58;95.87
37856;BME280;23694;43.274;26.924;2023-06-26T01:38:25;98380.22;;;21.57;96.05
37856;BME280;23694;43.274;26.924;2023-06-26T01:40:54;98379.84;;;21.60;96.00
37856;BME280;23694;43.274;26.924;2023-06-26T01:46:22;98377.44;;;21.65;95.46
37856;BME280;23694;43.274;26.924;2023-06-26T01:49:33;98385.88;;;21.68;95.50
37856;BME280;23694;43.274;26.924;2023-06-26T01:52:17;98376.25;;;21.67;95.67
37856;BME280;23694;43.274;26.924;2023-06-26T01:55:01;98379.47;;;21.84;94.84
37856;BME280;23694;43.274;26.924;2023-06-26T01:57:30;98377.97;;;21.75;94.56
37856;BME280;23694;43.274;26.924;2023-06-26T01:59:57;98383.09;;;21.76;95.26
37856;BME280;23694;43.274;26.924;2023-06-26T02:02:25;98382.47;;;21.74;95.84
37856;BME280;23694;43.274;26.924;2023-06-26T02:04:52;98373.06;;;21.78;95.06
37856;BME280;23694;43.274;26.924;2023-06-26T02:07:18;98375.38;;;21.81;94.89
37856;BME280;23694;43.274;26.924;2023-06-26T02:09:45;98371.41;;;21.77;94.84
37856;BME280;23694;43.274;26.924;2023-06-26T02:12:11;98378.66;;;21.83;94.63
37856;BME280;23694;43.274;26.924;2023-06-26T02:14:37;98378.84;;;21.82;95.46
37856;BME280;23694;43.274;26.924;2023-06-26T02:17:03;98373.84;;;21.94;94.00
37856;BME280;23694;43.274;26.924;2023-06-26T02:19:29;98373.44;;;21.97;93.68
37856;BME280;23694;43.274;26.924;2023-06-26T02:21:56;98375.41;;;21.88;94.69
37856;BME280;23694;43.274;26.924;2023-06-26T02:24:22;98365.72;;;21.80;95.04
37856;BME280;23694;43.274;26.924;2023-06-26T02:26:48;98364.44;;;21.76;95.21
37856;BME280;23694;43.274;26.924;2023-06-26T02:29:15;98360.31;;;21.74;96.00
37856;BME280;23694;43.274;26.924;2023-06-26T02:31:41;98366.09;;;21.77;95.53
37856;BME280;23694;43.274;26.924;2023-06-26T02:34:07;98366.97;;;21.84;94.83
37856;BME280;23694;43.274;26.924;2023-06-26T02:36:33;98357.03;;;21.72;95.18
37856;BME280;23694;43.274;26.924;2023-06-26T02:38:59;98356.25;;;21.57;97.10
37856;BME280;23694;43.274;26.924;2023-06-26T02:41:25;98357.63;;;21.52;96.92
37856;BME280;23694;43.274;26.924;2023-06-26T02:43:51;98360.31;;;21.52;97.44
37856;BME280;23694;43.274;26.924;2023-06-26T02:46:17;98359.03;;;21.48;97.62
37856;BME280;23694;43.274;26.924;2023-06-26T02:48:43;98357.09;;;21.42;98.19
37856;BME280;23694;43.274;26.924;2023-06-26T02:51:09;98358.56;;;21.45;97.88
37856;BME280;23694;43.274;26.924;2023-06-26T02:53:35;98354.16;;;21.52;97.35
37856;BME280;23694;43.274;26.924;2023-06-26T02:56:01;98358.09;;;21.56;96.75
37856;BME280;23694;43.274;26.924;2023-06-26T02:58:28;98350.53;;;21.60;96.28
37856;BME280;23694;43.274;26.924;2023-06-26T03:00:54;98357.19;;;21.34;97.78
37856;BME280;23694;43.274;26.924;2023-06-26T03:03:20;98355.28;;;21.28;98.55
37856;BME280;23694;43.274;26.924;2023-06-26T03:05:46;98354.34;;;21.21;98.57
37856;BME280;23694;43.274;26.924;2023-06-26T03:08:12;98354.47;;;21.28;98.64
37856;BME280;23694;43.274;26.924;2023-06-26T03:10:38;98355.56;;;21.18;99.31
37856;BME280;23694;43.274;26.924;2023-06-26T03:13:04;98359.59;;;21.29;98.84
37856;BME280;23694;43.274;26.924;2023-06-26T03:15:30;98364.84;;;21.23;98.95
37856;BME280;23694;43.274;26.924;2023-06-26T03:17:56;98360.16;;;21.25;98.86
37856;BME280;23694;43.274;26.924;2023-06-26T03:20:22;98364.75;;;21.01;100.00
37856;BME280;23694;43.274;26.924;2023-06-26T03:22:48;98364.50;;;20.96;100.00
37856;BME280;23694;43.274;26.924;2023-06-26T03:25:14;98364.50;;;20.96;100.00
37856;BME280;23694;43.274;26.924;2023-06-26T03:27:40;98366.16;;;20.82;100.00
37856;BME280;23694;43.274;26.924;2023-06-26T03:30:07;98363.00;;;20.79;100.00
37856;BME280;23694;43.274;26.924;2023-06-26T03:32:33;98367.03;;;20.60;100.00
37856;BME280;23694;43.274;26.924;2023-06-26T03:34:59;98375.00;;;20.60;100.00
37856;BME280;23694;43.274;26.924;2023-06-26T03:37:26;98376.31;;;20.26;100.00
37856;BME280;23694;43.274;26.924;2023-06-26T03:39:52;98372.69;;;20.42;100.00
37856;BME280;23694;43.274;26.924;2023-06-26T03:42:19;98372.63;;;20.50;100.00
37856;BME280;23694;43.274;26.924;2023-06-26T03:44:45;98377.72;;;20.37;100.00
37856;BME280;23694;43.274;26.924;2023-06-26T03:47:11;98382.03;;;20.38;100.00
37856;BME280;23694;43.274;26.924;2023-06-26T03:49:37;98383.03;;;20.37;100.00
37856;BME280;23694;43.274;26.924;2023-06-26T03:52:03;98383.22;;;20.36;100.00
37856;BME280;23694;43.274;26.924;2023-06-26T03:54:29;98390.00;;;20.38;100.00
37856;BME280;23694;43.274;26.924;2023-06-26T03:56:55;98393.03;;;20.35;100.00
37856;BME280;23694;43.274;26.924;2023-06-26T03:59:21;98391.69;;;20.39;100.00
37856;BME280;23694;43.274;26.924;2023-06-26T04:01:47;98390.91;;;20.08;100.00
37856;BME280;23694;43.274;26.924;2023-06-26T04:04:13;98396.94;;;20.24;100.00
37856;BME280;23694;43.274;26.924;2023-06-26T04:06:39;98395.09;;;20.25;100.00
37856;BME280;23694;43.274;26.924;2023-06-26T04:09:05;98398.22;;;20.29;99.32
37856;BME280;23694;43.274;26.924;2023-06-26T04:11:31;98391.06;;;20.06;100.00
37856;BME280;23694;43.274;26.924;2023-06-26T04:13:57;98392.34;;;20.18;100.00
37856;BME280;23694;43.274;26.924;2023-06-26T04:16:24;98390.78;;;20.24;99.93
37856;BME280;23694;43.274;26.924;2023-06-26T04:18:51;98390.84;;;19.93;100.00
37856;BME280;23694;43.274;26.924;2023-06-26T04:21:18;98388.38;;;19.91;100.00
37856;BME280;23694;43.274;26.924;2023-06-26T04:23:44;98393.25;;;20.03;100.00
37856;BME280;23694;43.274;26.924;2023-06-26T04:26:10;98396.66;;;20.19;99.74
37856;BME280;23694;43.274;26.924;2023-06-26T04:28:40;98396.94;;;20.24;98.25
37856;BME280;23694;43.274;26.924;2023-06-26T04:31:07;98395.94;;;20.25;98.00
37856;BME280;23694;43.274;26.924;2023-06-26T04:33:35;98399.06;;;20.29;97.78
37856;BME280;23694;43.274;26.924;2023-06-26T04:36:04;98395.69;;;20.35;96.35
37856;BME280;23694;43.274;26.924;2023-06-26T04:38:34;98394.84;;;20.35;96.57
37856;BME280;23694;43.274;26.924;2023-06-26T04:41:01;98393.75;;;20.29;95.64
37856;BME280;23694;43.274;26.924;2023-06-26T04:43:27;98414.84;;;20.31;95.05
37856;BME280;23694;43.274;26.924;2023-06-26T04:45:53;98397.50;;;20.35;94.32
37856;BME280;23694;43.274;26.924;2023-06-26T04:48:20;98408.94;;;20.43;93.43
37856;BME280;23694;43.274;26.924;2023-06-26T04:50:47;98417.09;;;20.42;93.44
37856;BME280;23694;43.274;26.924;2023-06-26T04:53:23;98409.59;;;20.60;92.17
37856;BME280;23694;43.274;26.924;2023-06-26T04:55:50;98405.38;;;20.66;90.88
37856;BME280;23694;43.274;26.924;2023-06-26T04:58:17;98413.56;;;20.64;90.48
37856;BME280;23694;43.274;26.924;2023-06-26T05:00:43;98418.44;;;20.75;90.49
37856;BME280;23694;43.274;26.924;2023-06-26T05:03:11;98419.13;;;20.92;88.81
37856;BME280;23694;43.274;26.924;2023-06-26T05:05:37;98424.88;;;21.10;87.24
37856;BME280;23694;43.274;26.924;2023-06-26T05:10:40;98431.06;;;21.26;85.51
37856;BME280;23694;43.274;26.924;2023-06-26T05:13:06;98431.50;;;21.44;84.46
37856;BME280;23694;43.274;26.924;2023-06-26T05:15:32;98438.47;;;21.60;83.49
37856;BME280;23694;43.274;26.924;2023-06-26T05:17:58;98439.84;;;21.92;81.32
37856;BME280;23694;43.274;26.924;2023-06-26T05:20:24;98444.66;;;21.81;81.14
37856;BME280;23694;43.274;26.924;2023-06-26T05:22:50;98437.75;;;21.87;80.00
37856;BME280;23694;43.274;26.924;2023-06-26T05:25:18;98445.53;;;22.03;80.04
37856;BME280;23694;43.274;26.924;2023-06-26T05:27:47;98440.28;;;22.10;80.65
37856;BME280;23694;43.274;26.924;2023-06-26T05:30:14;98443.78;;;22.32;78.12
37856;BME280;23694;43.274;26.924;2023-06-26T05:32:40;98442.16;;;22.59;77.03
37856;BME280;23694;43.274;26.924;2023-06-26T05:35:07;98438.03;;;22.77;75.99
37856;BME280;23694;43.274;26.924;2023-06-26T05:37:33;98437.34;;;22.75;76.51
37856;BME280;23694;43.274;26.924;2023-06-26T05:40:00;98439.78;;;22.92;74.21
37856;BME280;23694;43.274;26.924;2023-06-26T05:42:27;98442.03;;;22.88;74.46
37856;BME280;23694;43.274;26.924;2023-06-26T05:44:54;98444.53;;;22.96;74.55
37856;BME280;23694;43.274;26.924;2023-06-26T05:47:20;98449.88;;;22.96;74.92
37856;BME280;23694;43.274;26.924;2023-06-26T05:49:46;98448.19;;;22.67;75.53
37856;BME280;23694;43.274;26.924;2023-06-26T05:52:12;98451.69;;;22.89;75.09
37856;BME280;23694;43.274;26.924;2023-06-26T05:54:39;98452.31;;;22.91;73.89
37856;BME280;23694;43.274;26.924;2023-06-26T05:57:06;98451.28;;;22.92;73.69
37856;BME280;23694;43.274;26.924;2023-06-26T05:59:32;98454.41;;;22.96;73.93
37856;BME280;23694;43.274;26.924;2023-06-26T06:01:58;98464.06;;;22.75;74.97
37856;BME280;23694;43.274;26.924;2023-06-26T06:04:25;98462.25;;;22.76;73.81
37856;BME280;23694;43.274;26.924;2023-06-26T06:06:51;98464.41;;;22.87;73.89
37856;BME280;23694;43.274;26.924;2023-06-26T06:09:18;98473.53;;;22.99;73.17
37856;BME280;23694;43.274;26.924;2023-06-26T06:11:44;98473.03;;;22.68;73.33
37856;BME280;23694;43.274;26.924;2023-06-26T06:14:10;98475.41;;;22.56;74.06
37856;BME280;23694;43.274;26.924;2023-06-26T06:16:36;98475.56;;;22.27;75.07
37856;BME280;23694;43.274;26.924;2023-06-26T06:19:02;98472.00;;;22.20;75.75
37856;BME280;23694;43.274;26.924;2023-06-26T06:21:29;98479.72;;;22.00;77.01
37856;BME280;23694;43.274;26.924;2023-06-26T06:23:55;98471.63;;;22.23;77.06
37856;BME280;23694;43.274;26.924;2023-06-26T06:26:21;98468.63;;;22.11;78.33
37856;BME280;23694;43.274;26.924;2023-06-26T06:28:47;98450.91;;;22.25;76.05
37856;BME280;23694;43.274;26.924;2023-06-26T06:31:13;98474.34;;;22.51;74.94
37856;BME280;23694;43.274;26.924;2023-06-26T06:33:39;98478.91;;;22.57;75.10
37856;BME280;23694;43.274;26.924;2023-06-26T06:36:05;98469.25;;;22.77;74.19
37856;BME280;23694;43.274;26.924;2023-06-26T06:38:32;98480.28;;;22.95;73.33
37856;BME280;23694;43.274;26.924;2023-06-26T06:40:58;98480.81;;;22.84;73.80
37856;BME280;23694;43.274;26.924;2023-06-26T06:43:24;98480.63;;;22.86;73.25
37856;BME280;23694;43.274;26.924;2023-06-26T06:45:50;98484.94;;;22.87;72.88
37856;BME280;23694;43.274;26.924;2023-06-26T06:48:16;98489.06;;;22.68;73.58
37856;BME280;23694;43.274;26.924;2023-06-26T06:50:42;98489.88;;;22.68;73.76
37856;BME280;23694;43.274;26.924;2023-06-26T06:53:08;98488.44;;;22.44;75.90
37856;BME280;23694;43.274;26.924;2023-06-26T06:55:34;98494.38;;;22.83;74.33
37856;BME280;23694;43.274;26.924;2023-06-26T06:58:00;98492.22;;;22.99;73.50
37856;BME280;23694;43.274;26.924;2023-06-26T07:00:26;98478.72;;;23.07;72.60
37856;BME280;23694;43.274;26.924;2023-06-26T07:02:53;98476.84;;;23.01;73.42
37856;BME280;23694;43.274;26.924;2023-06-26T07:05:19;98483.13;;;23.22;72.82
37856;BME280;23694;43.274;26.924;2023-06-26T07:07:45;98485.03;;;23.34;71.64
37856;BME280;23694;43.274;26.924;2023-06-26T07:10:12;98488.31;;;23.30;71.63
37856;BME280;23694;43.274;26.924;2023-06-26T07:12:39;98489.31;;;23.29;72.12
37856;BME280;23694;43.274;26.924;2023-06-26T07:15:06;98487.28;;;23.31;71.87
37856;BME280;23694;43.274;26.924;2023-06-26T07:17:33;98482.06;;;23.16;72.44
37856;BME280;23694;43.274;26.924;2023-06-26T07:20:00;98486.56;;;23.44;70.23
37856;BME280;23694;43.274;26.924;2023-06-26T07:22:26;98489.84;;;23.46;70.25
37856;BME280;23694;43.274;26.924;2023-06-26T07:24:52;98500.06;;;23.35;70.86
37856;BME280;23694;43.274;26.924;2023-06-26T07:27:20;98489.59;;;23.40;71.19
37856;BME280;23694;43.274;26.924;2023-06-26T07:29:46;98490.22;;;23.77;69.87
37856;BME280;23694;43.274;26.924;2023-06-26T07:32:12;98496.03;;;23.94;68.40
37856;BME280;23694;43.274;26.924;2023-06-26T07:34:38;98495.41;;;23.92;68.45
37856;BME280;23694;43.274;26.924;2023-06-26T07:37:04;98499.53;;;23.94;67.69
37856;BME280;23694;43.274;26.924;2023-06-26T07:39:31;98499.13;;;23.91;66.46
37856;BME280;23694;43.274;26.924;2023-06-26T07:41:57;98497.28;;;23.91;67.34
37856;BME280;23694;43.274;26.924;2023-06-26T07:44:25;98511.91;;;23.95;66.12
37856;BME280;23694;43.274;26.924;2023-06-26T07:46:51;98507.78;;;23.99;65.55
37856;BME280;23694;43.274;26.924;2023-06-26T07:49:17;98512.63;;;23.69;66.94
37856;BME280;23694;43.274;26.924;2023-06-26T07:51:43;98509.19;;;23.82;66.28
37856;BME280;23694;43.274;26.924;2023-06-26T07:54:09;98510.66;;;23.98;65.81
37856;BME280;23694;43.274;26.924;2023-06-26T07:56:55;98508.69;;;24.13;65.70
37856;BME280;23694;43.274;26.924;2023-06-26T07:59:22;98510.25;;;24.01;65.51
37856;BME280;23694;43.274;26.924;2023-06-26T08:01:50;98512.41;;;24.25;64.98
37856;BME280;23694;43.274;26.924;2023-06-26T08:04:22;98512.69;;;24.37;64.50
37856;BME280;23694;43.274;26.924;2023-06-26T08:06:49;98516.75;;;24.26;65.67
37856;BME280;23694;43.274;26.924;2023-06-26T08:09:18;98508.06;;;24.18;65.75
37856;BME280;23694;43.274;26.924;2023-06-26T08:11:45;98503.56;;;24.18;64.59
37856;BME280;23694;43.274;26.924;2023-06-26T08:14:11;98507.88;;;24.26;63.88
37856;BME280;23694;43.274;26.924;2023-06-26T08:16:41;98502.53;;;24.26;63.82
37856;BME280;23694;43.274;26.924;2023-06-26T08:19:08;98499.50;;;24.29;63.63
37856;BME280;23694;43.274;26.924;2023-06-26T08:21:34;98501.28;;;24.15;63.97
37856;BME280;23694;43.274;26.924;2023-06-26T08:24:03;98493.81;;;24.04;64.69
37856;BME280;23694;43.274;26.924;2023-06-26T08:26:32;98490.56;;;24.09;65.03
37856;BME280;23694;43.274;26.924;2023-06-26T08:29:00;98495.25;;;24.00;65.97
37856;BME280;23694;43.274;26.924;2023-06-26T08:31:39;98488.31;;;24.19;64.30
37856;BME280;23694;43.274;26.924;2023-06-26T08:34:05;98490.44;;;24.30;65.17
37856;BME280;23694;43.274;26.924;2023-06-26T08:36:32;98481.78;;;24.41;64.63
37856;BME280;23694;43.274;26.924;2023-06-26T08:38:58;98492.50;;;24.54;63.82
37856;BME280;23694;43.274;26.924;2023-06-26T08:41:28;98497.06;;;24.74;61.86
37856;BME280;23694;43.274;26.924;2023-06-26T08:43:57;98488.41;;;24.91;61.46
37856;BME280;23694;43.274;26.924;2023-06-26T08:46:23;98493.38;;;25.01;60.39
37856;BME280;23694;43.274;26.924;2023-06-26T08:48:55;98490.91;;;25.00;59.88
37856;BME280;23694;43.274;26.924;2023-06-26T08:51:24;98487.78;;;25.16;60.44
37856;BME280;23694;43.274;26.924;2023-06-26T08:53:59;98495.59;;;25.44;59.74
37856;BME280;23694;43.274;26.924;2023-06-26T08:56:32;98492.22;;;25.68;59.44
37856;BME280;23694;43.274;26.924;2023-06-26T08:59:00;98494.69;;;25.63;58.84
37856;BME280;23694;43.274;26.924;2023-06-26T09:01:27;98492.88;;;25.57;59.36
37856;BME280;23694;43.274;26.924;2023-06-26T09:03:53;98489.72;;;25.73;58.86
37856;BME280;23694;43.274;26.924;2023-06-26T09:06:20;98496.38;;;25.51;59.18
37856;BME280;23694;43.274;26.924;2023-06-26T09:08:46;98488.81;;;25.15;60.19
37856;BME280;23694;43.274;26.924;2023-06-26T09:11:12;98489.63;;;25.28;58.55
37856;BME280;23694;43.274;26.924;2023-06-26T09:13:39;98493.53;;;25.26;58.30
37856;BME280;23694;43.274;26.924;2023-06-26T09:16:06;98489.22;;;25.18;59.34
37856;BME280;23694;43.274;26.924;2023-06-26T09:18:34;98497.47;;;25.17;60.09
37856;BME280;23694;43.274;26.924;2023-06-26T09:21:05;98505.09;;;25.13;59.79
37856;BME280;23694;43.274;26.924;2023-06-26T09:23:31;98497.28;;;25.18;58.09
37856;BME280;23694;43.274;26.924;2023-06-26T09:25:58;98499.31;;;25.23;57.27
37856;BME280;23694;43.274;26.924;2023-06-26T09:28:24;98497.44;;;25.43;56.33
37856;BME280;23694;43.274;26.924;2023-06-26T09:30:51;98502.75;;;25.56;55.80
37856;BME280;23694;43.274;26.924;2023-06-26T09:33:20;98490.59;;;25.67;55.96
37856;BME280;23694;43.274;26.924;2023-06-26T09:35:47;98497.41;;;25.56;55.92
37856;BME280;23694;43.274;26.924;2023-06-26T09:38:14;98501.69;;;25.64;55.77
37856;BME280;23694;43.274;26.924;2023-06-26T09:40:44;98494.91;;;25.62;55.02
37856;BME280;23694;43.274;26.924;2023-06-26T09:43:13;98495.03;;;25.86;55.05
37856;BME280;23694;43.274;26.924;2023-06-26T09:45:40;98503.88;;;25.94;54.99
37856;BME280;23694;43.274;26.924;2023-06-26T09:48:06;98499.06;;;26.09;54.56
37856;BME280;23694;43.274;26.924;2023-06-26T09:50:41;98499.25;;;26.14;53.46
37856;BME280;23694;43.274;26.924;2023-06-26T09:53:08;98498.69;;;26.05;53.48
37856;BME280;23694;43.274;26.924;2023-06-26T09:55:40;98500.38;;;25.93;53.66
37856;BME280;23694;43.274;26.924;2023-06-26T09:58:12;98495.75;;;26.13;53.21
37856;BME280;23694;43.274;26.924;2023-06-26T10:00:41;98503.06;;;26.31;51.95
37856;BME280;23694;43.274;26.924;2023-06-26T10:03:11;98504.88;;;26.44;51.63
37856;BME280;23694;43.274;26.924;2023-06-26T10:05:39;98498.97;;;26.60;50.33
37856;BME280;23694;43.274;26.924;2023-06-26T10:08:06;98486.97;;;26.63;50.18
37856;BME280;23694;43.274;26.924;2023-06-26T10:10:37;98499.56;;;26.62;50.40
37856;BME280;23694;43.274;26.924;2023-06-26T10:13:15;98496.50;;;26.59;50.43
37856;BME280;23694;43.274;26.924;2023-06-26T10:15:46;98491.91;;;26.66;49.69
37856;BME280;23694;43.274;26.924;2023-06-26T10:18:13;98497.81;;;26.81;50.48
37856;BME280;23694;43.274;26.924;2023-06-26T10:20:42;98489.09;;;27.10;49.05
37856;BME280;23694;43.274;26.924;2023-06-26T10:23:11;98483.00;;;27.40;48.11
37856;BME280;23694;43.274;26.924;2023-06-26T10:25:41;98483.38;;;27.43;47.50
37856;BME280;23694;43.274;26.924;2023-06-26T10:28:08;98484.56;;;27.47;47.45
37856;BME280;23694;43.274;26.924;2023-06-26T10:30:36;98480.78;;;27.73;46.40
37856;BME280;23694;43.274;26.924;2023-06-26T10:33:03;98475.69;;;27.65;46.92
37856;BME280;23694;43.274;26.924;2023-06-26T10:35:30;98485.56;;;27.71;46.64
37856;BME280;23694;43.274;26.924;2023-06-26T10:38:01;98472.53;;;27.50;46.73
37856;BME280;23694;43.274;26.924;2023-06-26T10:40:40;98475.25;;;27.68;46.73
37856;BME280;23694;43.274;26.924;2023-06-26T10:43:08;98466.16;;;27.26;47.72
37856;BME280;23694;43.274;26.924;2023-06-26T10:45:35;98476.72;;;27.46;47.46
37856;BME280;23694;43.274;26.924;2023-06-26T10:48:02;98477.63;;;27.58;45.59
37856;BME280;23694;43.274;26.924;2023-06-26T10:50:31;98471.50;;;27.33;47.06
37856;BME280;23694;43.274;26.924;2023-06-26T10:56:02;98472.56;;;27.32;47.68
37856;BME280;23694;43.274;26.924;2023-06-26T11:03:38;98459.63;;;27.77;46.26
37856;BME280;23694;43.274;26.924;2023-06-26T11:06:14;98460.44;;;27.41;46.93
37856;BME280;23694;43.274;26.924;2023-06-26T11:08:51;98468.75;;;27.39;46.62
37856;BME280;23694;43.274;26.924;2023-06-26T11:11:20;98463.72;;;27.43;46.34
37856;BME280;23694;43.274;26.924;2023-06-26T11:13:47;98460.81;;;27.44;45.87
37856;BME280;23694;43.274;26.924;2023-06-26T11:16:14;98460.97;;;27.50;45.60
37856;BME280;23694;43.274;26.924;2023-06-26T11:18:41;98455.22;;;27.64;45.44
37856;BME280;23694;43.274;26.924;2023-06-26T11:21:08;98461.03;;;27.43;45.67
37856;BME280;23694;43.274;26.924;2023-06-26T11:23:36;98458.72;;;27.46;45.68
37856;BME280;23694;43.274;26.924;2023-06-26T11:26:19;98462.31;;;27.59;45.24
37856;BME280;23694;43.274;26.924;2023-06-26T11:28:49;98453.00;;;27.61;45.31
37856;BME280;23694;43.274;26.924;2023-06-26T11:31:32;98456.50;;;27.62;45.80
37856;BME280;23694;43.274;26.924;2023-06-26T11:34:01;98450.94;;;27.75;45.17
37856;BME280;23694;43.274;26.924;2023-06-26T11:36:27;98450.22;;;27.31;46.41
37856;BME280;23694;43.274;26.924;2023-06-26T11:38:57;98447.81;;;27.41;45.80
37856;BME280;23694;43.274;26.924;2023-06-26T11:41:26;98442.97;;;27.32;46.34
37856;BME280;23694;43.274;26.924;2023-06-26T11:43:52;98447.00;;;27.41;46.57
37856;BME280;23694;43.274;26.924;2023-06-26T11:46:20;98447.81;;;27.41;46.60
37856;BME280;23694;43.274;26.924;2023-06-26T11:48:46;98435.50;;;27.52;46.43
37856;BME280;23694;43.274;26.924;2023-06-26T11:51:13;98443.78;;;27.69;46.51
37856;BME280;23694;43.274;26.924;2023-06-26T11:53:44;98442.69;;;27.88;45.42
37856;BME280;23694;43.274;26.924;2023-06-26T11:56:12;98440.75;;;27.95;44.58
37856;BME280;23694;43.274;26.924;2023-06-26T11:59:00;98436.63;;;27.93;43.39
37856;BME280;23694;43.274;26.924;2023-06-26T12:01:39;98444.59;;;27.69;42.21
37856;BME280;23694;43.274;26.924;2023-06-26T12:04:08;98436.81;;;27.79;41.81
37856;BME280;23694;43.274;26.924;2023-06-26T12:06:35;98438.91;;;27.77;41.42
37856;BME280;23694;43.274;26.924;2023-06-26T12:09:04;98438.03;;;27.47;41.38
37856;BME280;23694;43.274;26.924;2023-06-26T12:11:32;98431.84;;;27.65;41.52
37856;BME280;23694;43.274;26.924;2023-06-26T12:13:59;98431.00;;;27.46;42.21
37856;BME280;23694;43.274;26.924;2023-06-26T12:16:29;98431.72;;;27.90;40.98
37856;BME280;23694;43.274;26.924;2023-06-26T12:19:03;98428.50;;;27.99;40.72
37856;BME280;23694;43.274;26.924;2023-06-26T12:24:15;98425.81;;;27.99;39.94
37856;BME280;23694;43.274;26.924;2023-06-26T12:26:49;98423.56;;;27.96;40.35
37856;BME280;23694;43.274;26.924;2023-06-26T12:29:18;98434.50;;;28.13;39.95
37856;BME280;23694;43.274;26.924;2023-06-26T12:31:45;98434.09;;;28.28;39.76
37856;BME280;23694;43.274;26.924;2023-06-26T12:34:17;98436.94;;;28.03;40.84
37856;BME280;23694;43.274;26.924;2023-06-26T12:36:45;98440.88;;;27.70;42.00
37856;BME280;23694;43.274;26.924;2023-06-26T12:39:12;98434.22;;;27.55;41.87
37856;BME280;23694;43.274;26.924;2023-06-26T12:41:51;98438.47;;;27.44;41.49
37856;BME280;23694;43.274;26.924;2023-06-26T12:47:02;98421.00;;;27.35;40.65
37856;BME280;23694;43.274;26.924;2023-06-26T12:49:37;98438.31;;;27.21;41.91
37856;BME280;23694;43.274;26.924;2023-06-26T12:52:08;98436.91;;;26.93;42.12
37856;BME280;23694;43.274;26.924;2023-06-26T12:54:36;98444.59;;;26.90;42.04
37856;BME280;23694;43.274;26.924;2023-06-26T12:57:03;98432.84;;;27.09;42.33
37856;BME280;23694;43.274;26.924;2023-06-26T12:59:36;98430.91;;;26.98;42.51
37856;BME280;23694;43.274;26.924;2023-06-26T13:02:06;98440.34;;;26.82;42.56
37856;BME280;23694;43.274;26.924;2023-06-26T13:04:34;98441.75;;;26.84;43.16
37856;BME280;23694;43.274;26.924;2023-06-26T13:07:07;98437.88;;;26.80;43.10
37856;BME280;23694;43.274;26.924;2023-06-26T13:09:34;98442.97;;;26.89;42.97
37856;BME280;23694;43.274;26.924;2023-06-26T13:12:01;98429.19;;;27.03;42.06
37856;BME280;23694;43.274;26.924;2023-06-26T13:14:30;98428.72;;;27.31;41.21